Time;durP1;ratioP1;P1;durP2;ratioP2;P2;SDS_P1;SDS_P2;PMS_P1;PMS_P2;Temp;Humidity;BMP_temperature;BMP_pressure;BME280_temperature;BME280_humidity;BME280_pressure;Samples;Min_cycle;Max_cycle;Signal;HPM_P1;HPM_P2
2023/07/28 00:00:09;;;;;;;4.70;4.30;;;;;;;21.68;42.04;99779.41;5076873;28;20040;-62
2023/07/28 00:02:34;;;;;;;4.65;4.25;;;;;;;21.69;42.31;99774.84;5075554;28;20028;-61
2023/07/28 00:05:00;;;;;;;4.10;3.80;;;;;;;21.70;42.48;99794.53;5075875;28;20341;-62
2023/07/28 00:07:25;;;;;;;4.53;3.92;;;;;;;21.54;42.69;99794.16;5075761;28;20047;-62
2023/07/28 00:09:50;;;;;;;4.78;4.40;;;;;;;21.57;42.65;99790.19;5075783;28;20044;-62
2023/07/28 00:12:16;;;;;;;4.40;4.00;;;;;;;21.65;43.07;99793.34;5076219;28;20036;-62
2023/07/28 00:14:41;;;;;;;4.57;4.18;;;;;;;21.75;42.88;99794.66;5075645;28;20051;-62
2023/07/28 00:17:07;;;;;;;4.35;4.03;;;;;;;21.82;42.50;99796.16;5074915;28;20032;-62
2023/07/28 00:19:32;;;;;;;4.07;3.70;;;;;;;21.35;43.84;99789.91;5075992;28;20040;-62
2023/07/28 00:21:57;;;;;;;4.63;4.18;;;;;;;21.47;43.45;99796.13;5075415;28;20032;-62
2023/07/28 00:24:23;;;;;;;4.53;4.13;;;;;;;21.61;43.27;99791.34;5076229;28;20040;-62
2023/07/28 00:26:48;;;;;;;4.43;4.03;;;;;;;21.72;43.09;99803.19;5076074;28;20033;-62
2023/07/28 00:29:14;;;;;;;4.65;4.25;;;;;;;21.51;43.74;99809.97;5075873;28;20029;-63
2023/07/28 00:31:39;;;;;;;5.05;4.47;;;;;;;21.55;43.64;99803.06;5077457;28;20048;-62
2023/07/28 00:34:05;;;;;;;4.63;4.22;;;;;;;21.33;44.11;99797.41;5076970;28;20062;-62
2023/07/28 00:36:31;;;;;;;4.85;4.35;;;;;;;21.01;44.88;99783.34;5076061;28;20330;-62
2023/07/28 00:38:57;;;;;;;5.63;4.30;;;;;;;20.79;45.33;99782.19;5076270;28;20031;-62
2023/07/28 00:41:22;;;;;;;5.47;4.97;;;;;;;20.98;44.99;99787.31;5075728;28;20037;-62
2023/07/28 00:43:47;;;;;;;6.25;5.00;;;;;;;21.06;45.07;99791.56;5075944;28;20032;-62
2023/07/28 00:46:14;;;;;;;7.30;4.70;;;;;;;21.13;44.55;99797.66;5075261;28;20218;-61
2023/07/28 00:48:40;;;;;;;5.40;4.90;;;;;;;21.31;44.04;99788.72;5078032;28;20041;-62
2023/07/28 00:51:07;;;;;;;5.82;5.28;;;;;;;21.54;43.46;99782.56;5076075;28;20058;-62
2023/07/28 00:53:33;;;;;;;6.07;5.13;;;;;;;21.60;43.74;99792.41;5075868;28;20033;-62
2023/07/28 00:55:58;;;;;;;5.95;5.35;;;;;;;21.57;43.62;99791.00;5074754;28;20063;-63
2023/07/28 00:58:24;;;;;;;5.30;4.75;;;;;;;21.50;43.72;99790.28;5074888;28;20161;-62
2023/07/28 01:00:50;;;;;;;5.45;5.05;;;;;;;21.44;43.60;99793.91;5075062;28;20047;-62
2023/07/28 01:03:17;;;;;;;5.80;5.03;;;;;;;21.29;43.84;99772.81;5074378;28;20028;-62
2023/07/28 01:06:00;;;;;;;5.22;4.72;;;;;;;21.29;44.06;99786.25;5074710;28;20040;-63
2023/07/28 01:08:33;;;;;;;5.05;4.60;;;;;;;21.32;43.63;99788.50;5072663;28;20389;-62
2023/07/28 01:10:59;;;;;;;;;;;;;;;21.22;43.93;99785.53;5076285;28;20075;-62
2023/07/28 01:13:24;;;;;;;5.43;4.65;;;;;;;21.22;43.75;99793.63;5077353;28;20210;-62
2023/07/28 01:15:50;;;;;;;4.78;4.38;;;;;;;21.31;43.65;99788.72;5075232;28;20341;-62
2023/07/28 01:18:15;;;;;;;5.18;4.13;;;;;;;21.17;43.88;99788.06;5074329;28;20051;-62
2023/07/28 01:20:45;;;;;;;5.68;4.32;;;;;;;21.20;43.78;99789.50;5074513;28;20032;-62
2023/07/28 01:23:22;;;;;;;4.63;4.18;;;;;;;21.05;44.33;99795.28;5073077;28;20099;-62
2023/07/28 01:26:10;;;;;;;5.00;4.55;;;;;;;21.17;44.10;99792.63;5070096;28;20032;-63
2023/07/28 01:28:37;;;;;;;5.40;4.38;;;;;;;21.22;44.33;99793.63;5074661;28;20043;-62
2023/07/28 01:31:04;;;;;;;4.60;4.20;;;;;;;21.29;43.95;99786.25;5075392;28;20071;-62
2023/07/28 01:33:30;;;;;;;4.88;4.47;;;;;;;21.24;44.07;99786.13;5074509;28;20051;-62
2023/07/28 01:35:55;;;;;;;6.10;4.40;;;;;;;21.32;43.74;99788.50;5073565;28;20032;-62
2023/07/28 01:38:21;;;;;;;4.80;4.40;;;;;;;20.67;45.17;99784.81;5074156;28;20044;-62
2023/07/28 01:40:46;;;;;;;4.43;4.00;;;;;;;20.81;45.19;99790.88;5074739;28;20055;-62
2023/07/28 01:43:12;;;;;;;4.82;4.43;;;;;;;20.73;45.40;99800.88;5074209;28;20032;-62
2023/07/28 01:45:37;;;;;;;5.22;4.72;;;;;;;20.77;45.44;99793.16;5075174;28;20348;-62
2023/07/28 01:48:03;;;;;;;4.95;4.45;;;;;;;20.77;45.49;99797.72;5075033;28;20286;-61
2023/07/28 01:50:29;;;;;;;4.95;4.55;;;;;;;20.84;45.22;99790.41;5074540;28;20036;-62
2023/07/28 01:52:55;;;;;;;5.55;4.70;;;;;;;20.70;45.52;99795.94;5073576;28;20358;-61
2023/07/28 01:55:20;;;;;;;5.40;4.75;;;;;;;20.74;45.46;99793.63;5074354;28;20271;-62
2023/07/28 01:57:56;;;;;;;4.95;4.47;;;;;;;20.62;45.39;99788.19;5073877;28;20064;-62
2023/07/28 02:00:21;;;;;;;4.72;4.30;;;;;;;20.61;45.67;99800.00;5073434;28;20094;-62
2023/07/28 02:02:48;;;;;;;5.53;5.03;;;;;;;20.47;46.17;99801.19;5074442;28;20264;-62
2023/07/28 02:05:13;;;;;;;5.35;4.70;;;;;;;20.38;46.53;99806.03;5070192;28;20032;-63
2023/07/28 02:07:39;;;;;;;5.30;4.65;;;;;;;20.31;46.45;99805.28;5074184;28;20062;-62
2023/07/28 02:10:05;;;;;;;6.85;4.60;;;;;;;20.30;46.49;99809.00;5074574;28;20055;-62
2023/07/28 02:12:30;;;;;;;4.75;4.35;;;;;;;20.45;46.05;99813.22;5073440;28;20044;-63
2023/07/28 02:14:56;;;;;;;5.35;4.85;;;;;;;20.16;46.64;99810.19;5074238;28;20408;-62
2023/07/28 02:17:21;;;;;;;6.47;4.45;;;;;;;20.29;46.42;99820.00;5073594;28;20036;-62
2023/07/28 02:19:47;;;;;;;4.65;4.25;;;;;;;20.28;46.50;99811.09;5073552;28;20264;-62
2023/07/28 02:22:12;;;;;;;4.88;4.47;;;;;;;20.46;45.76;99822.94;5074844;28;20242;-63
2023/07/28 02:24:38;;;;;;;5.50;5.00;;;;;;;20.45;45.82;99822.13;5075998;28;20304;-62
2023/07/28 02:27:04;;;;;;;5.25;4.85;;;;;;;20.32;46.29;99825.75;5073383;28;20036;-61
2023/07/28 02:29:29;;;;;;;5.10;4.70;;;;;;;20.46;46.06;99820.25;5073987;28;20032;-62
2023/07/28 02:31:55;;;;;;;5.40;4.88;;;;;;;20.23;46.52;99823.56;5074022;28;20033;-62
2023/07/28 02:34:20;;;;;;;5.00;4.50;;;;;;;20.27;46.35;99811.31;5073506;28;20038;-62
2023/07/28 02:36:45;;;;;;;6.97;5.40;;;;;;;20.30;46.17;99811.69;5073650;28;20040;-62
2023/07/28 02:39:11;;;;;;;5.50;5.00;;;;;;;20.45;46.07;99814.03;5072311;28;20037;-63
2023/07/28 02:41:37;;;;;;;5.32;4.82;;;;;;;20.46;46.26;99815.69;5073880;28;20341;-63
2023/07/28 02:44:02;;;;;;;6.68;5.40;;;;;;;20.45;46.04;99815.91;5074178;28;20115;-62
2023/07/28 02:46:28;;;;;;;6.15;5.15;;;;;;;20.53;45.74;99815.63;5074062;28;20067;-62
2023/07/28 02:48:53;;;;;;;5.43;5.00;;;;;;;20.50;45.67;99816.06;5076584;28;20801;-62
2023/07/28 02:51:18;;;;;;;6.30;5.70;;;;;;;20.36;46.14;99816.19;5074266;28;20318;-62
2023/07/28 02:53:44;;;;;;;5.88;5.05;;;;;;;20.49;46.03;99825.19;5073716;28;20037;-63
2023/07/28 02:56:09;;;;;;;6.45;5.72;;;;;;;20.50;45.89;99824.13;5073941;28;20040;-62
2023/07/28 02:58:35;;;;;;;7.20;5.85;;;;;;;20.27;46.30;99825.59;5073424;28;20040;-62
2023/07/28 03:01:00;;;;;;;7.80;5.88;;;;;;;20.23;46.84;99829.78;5073315;28;20099;-62
2023/07/28 03:03:26;;;;;;;6.35;5.57;;;;;;;20.04;47.29;99831.63;5073487;28;20104;-62
2023/07/28 03:05:53;;;;;;;7.22;5.40;;;;;;;20.18;47.03;99836.84;5073532;28;20353;-61
2023/07/28 03:08:20;;;;;;;7.72;5.97;;;;;;;20.24;46.73;99833.28;5073603;28;20044;-62
2023/07/28 03:10:45;;;;;;;7.25;6.28;;;;;;;20.26;46.78;99829.31;5073591;28;20274;-62
2023/07/28 03:13:11;;;;;;;9.93;6.13;;;;;;;20.21;46.99;99833.72;5072432;28;20448;-61
2023/07/28 03:15:36;;;;;;;7.68;5.70;;;;;;;20.02;47.45;99831.00;5073259;28;20054;-61
2023/07/28 03:18:01;;;;;;;10.48;6.05;;;;;;;20.05;47.53;99835.13;5072994;28;20036;-62
2023/07/28 03:20:27;;;;;;;9.52;6.95;;;;;;;20.10;47.99;99848.72;5073088;28;20040;-62
2023/07/28 03:22:54;;;;;;;8.52;6.47;;;;;;;20.04;48.67;99845.06;5072979;28;20214;-62
2023/07/28 03:25:20;;;;;;;10.60;7.53;;;;;;;19.84;49.24;99830.97;5072356;28;20342;-62
2023/07/28 03:27:45;;;;;;;9.75;7.70;;;;;;;20.09;49.34;99847.91;5076238;28;20024;-62
2023/07/28 03:30:11;;;;;;;11.93;8.80;;;;;;;20.22;48.87;99860.38;5077262;28;20242;-62
2023/07/28 03:32:37;;;;;;;11.70;8.68;;;;;;;20.24;49.30;99857.47;5076914;28;20234;-62
2023/07/28 03:35:04;;;;;;;9.35;8.15;;;;;;;20.13;49.87;99853.66;5077270;28;20047;-62
2023/07/28 03:37:33;;;;;;;9.57;7.65;;;;;;;20.16;49.57;99860.47;5077869;28;20285;-62
2023/07/28 03:39:58;;;;;;;8.15;7.43;;;;;;;20.25;49.49;99867.19;5079180;28;20068;-62
2023/07/28 03:42:24;;;;;;;7.93;7.22;;;;;;;20.26;49.49;99869.66;5076499;28;20229;-62
2023/07/28 03:44:50;;;;;;;10.23;7.90;;;;;;;20.32;49.01;99874.16;5077599;28;20044;-61
2023/07/28 03:47:15;;;;;;;8.80;7.13;;;;;;;20.37;49.37;99873.47;5076904;28;20043;-62
2023/07/28 03:49:41;;;;;;;8.32;7.20;;;;;;;20.41;49.12;99872.03;5077094;28;20040;-61
2023/07/28 03:52:06;;;;;;;11.07;7.70;;;;;;;20.46;48.84;99871.34;5076456;28;20027;-62
2023/07/28 03:54:32;;;;;;;10.73;8.20;;;;;;;20.50;49.11;99877.94;5076643;28;20046;-62
2023/07/28 03:56:57;;;;;;;8.50;7.63;;;;;;;20.51;48.47;99876.88;5075669;28;20032;-62
2023/07/28 03:59:22;;;;;;;10.82;8.40;;;;;;;20.52;48.51;99879.34;5075258;28;20048;-62
2023/07/28 04:01:49;;;;;;;9.68;8.23;;;;;;;20.60;48.56;99883.63;5076021;28;20338;-62
2023/07/28 04:04:15;;;;;;;14.13;8.85;;;;;;;20.61;48.92;99885.25;5076633;28;20039;-62
2023/07/28 04:06:49;;;;;;;13.07;9.48;;;;;;;20.60;49.20;99884.44;5076212;28;20055;-62
2023/07/28 04:09:15;;;;;;;14.95;9.85;;;;;;;20.61;49.70;99880.69;5076407;28;20112;-63
2023/07/28 04:11:41;;;;;;;10.02;8.65;;;;;;;20.59;49.29;99879.28;5076469;28;20323;-62
2023/07/28 04:14:07;;;;;;;10.95;9.10;;;;;;;20.42;49.59;99876.34;5076552;28;20385;-62
2023/07/28 04:16:33;;;;;;;12.32;8.75;;;;;;;20.37;49.91;99874.31;5075946;28;20099;-62
2023/07/28 04:18:58;;;;;;;10.98;8.75;;;;;;;20.43;49.75;99874.50;5075713;28;20311;-62
2023/07/28 04:21:24;;;;;;;14.43;9.23;;;;;;;20.53;49.67;99882.88;5075445;28;20101;-61
2023/07/28 04:23:49;;;;;;;54.80;30.30;;;;;;;20.65;49.12;99884.59;5074931;28;20052;-62
2023/07/28 04:26:16;;;;;;;125.22;59.05;;;;;;;20.71;49.00;99886.38;5075304;28;20443;-62
2023/07/28 04:28:42;;;;;;;97.38;45.67;;;;;;;20.74;48.66;99885.09;5075446;28;20059;-62
2023/07/28 04:31:07;;;;;;;62.83;29.50;;;;;;;20.85;48.73;99900.53;5076980;28;20037;-63
2023/07/28 04:33:33;;;;;;;112.80;52.67;;;;;;;20.99;48.44;99898.50;5077870;28;20357;-62
2023/07/28 04:36:00;;;;;;;53.95;27.10;;;;;;;20.94;47.99;99904.56;5075172;28;20145;-62
2023/07/28 04:38:26;;;;;;;23.77;16.95;;;;;;;21.17;47.53;99901.16;5074691;28;20040;-62
2023/07/28 04:40:52;;;;;;;17.67;12.50;;;;;;;21.47;46.49;99906.59;5075003;28;20047;-62
2023/07/28 04:43:17;;;;;;;29.75;16.13;;;;;;;21.77;45.68;99901.16;5073258;28;20059;-62
2023/07/28 04:45:44;;;;;;;35.85;20.35;;;;;;;22.09;44.14;99898.22;5074418;28;20033;-62
2023/07/28 04:48:09;;;;;;;28.52;15.75;;;;;;;22.34;43.75;99898.81;5074657;28;20542;-62
2023/07/28 04:50:36;;;;;;;24.30;13.43;;;;;;;22.49;42.69;99903.75;5074217;28;20047;-62
2023/07/28 04:53:01;;;;;;;27.25;14.80;;;;;;;22.65;42.98;99892.22;5076682;28;20036;-62
2023/07/28 04:55:27;;;;;;;26.70;14.73;;;;;;;22.76;41.88;99898.66;5055552;28;20239;-62
2023/07/28 04:57:53;;;;;;;20.08;12.98;;;;;;;22.93;41.29;99903.13;5057504;28;20045;-62
2023/07/28 05:00:18;;;;;;;17.67;12.40;;;;;;;23.08;41.08;99902.63;5074954;28;20032;-62
2023/07/28 05:02:44;;;;;;;16.42;12.45;;;;;;;23.34;41.13;99901.22;5076310;28;20111;-63
2023/07/28 05:05:09;;;;;;;21.52;11.70;;;;;;;23.60;40.86;99909.84;5077943;28;20376;-62
2023/07/28 05:07:35;;;;;;;17.35;11.30;;;;;;;23.69;40.45;99913.78;5076124;28;20032;-62
2023/07/28 05:10:00;;;;;;;12.30;7.78;;;;;;;23.82;39.42;99900.78;5074947;28;20077;-63
2023/07/28 05:12:26;;;;;;;13.05;8.00;;;;;;;23.85;39.84;99908.41;5074832;28;20082;-62
2023/07/28 05:14:51;;;;;;;9.07;7.30;;;;;;;23.93;39.41;99915.31;5074070;28;20028;-62
2023/07/28 05:17:16;;;;;;;8.07;7.13;;;;;;;24.03;39.25;99907.38;5074522;28;20032;-62
2023/07/28 05:19:42;;;;;;;9.10;7.38;;;;;;;24.19;39.26;99919.25;5074913;28;20033;-62
2023/07/28 05:22:07;;;;;;;9.43;7.68;;;;;;;24.26;38.86;99913.66;5074286;28;20033;-63
2023/07/28 05:24:33;;;;;;;10.82;7.57;;;;;;;24.44;38.18;99919.66;5073715;28;20288;-63
2023/07/28 05:26:59;;;;;;;8.75;7.90;;;;;;;24.60;38.54;99914.47;5074399;28;20029;-62
2023/07/28 05:29:24;;;;;;;9.43;6.78;;;;;;;24.86;37.63;99918.34;5075182;28;20073;-63
2023/07/28 05:31:50;;;;;;;7.32;6.60;;;;;;;24.87;37.71;99923.50;5076339;28;20036;-62
2023/07/28 05:34:16;;;;;;;10.35;7.63;;;;;;;24.99;37.78;99920.72;5074723;28;20039;-62
2023/07/28 05:36:41;;;;;;;10.57;7.28;;;;;;;25.13;36.94;99932.81;5074725;28;20114;-63
2023/07/28 05:39:07;;;;;;;8.48;7.65;;;;;;;25.19;37.24;99925.56;5074881;28;20035;-63
2023/07/28 05:41:32;;;;;;;9.63;7.78;;;;;;;25.35;36.33;99927.38;5073912;28;20052;-62
2023/07/28 05:43:57;;;;;;;9.18;7.97;;;;;;;25.64;36.39;99923.34;5071087;28;20033;-62
2023/07/28 05:46:23;;;;;;;8.57;7.68;;;;;;;25.87;35.89;99924.13;5075044;28;20264;-63
2023/07/28 05:48:49;;;;;;;8.90;7.32;;;;;;;25.99;34.81;99922.06;5074163;28;20028;-62
2023/07/28 05:51:14;;;;;;;8.30;7.57;;;;;;;25.92;34.49;99927.69;5074699;28;20039;-63
2023/07/28 05:53:40;;;;;;;6.28;5.78;;;;;;;26.01;33.90;99923.47;5073135;28;20047;-62
2023/07/28 05:56:05;;;;;;;8.68;7.88;;;;;;;26.18;33.08;99920.63;5073873;28;20218;-62
2023/07/28 05:58:30;;;;;;;10.55;9.77;;;;;;;26.13;32.99;99926.00;5073443;28;20091;-62
2023/07/28 06:00:56;;;;;;;5.93;5.32;;;;;;;26.27;32.66;99920.94;5074397;28;20365;-62
2023/07/28 06:03:21;;;;;;;6.07;5.57;;;;;;;26.28;31.85;99920.69;5074327;28;20054;-62
2023/07/28 06:05:47;;;;;;;5.65;4.97;;;;;;;26.29;31.89;99919.59;5074532;28;20058;-63
2023/07/28 06:08:13;;;;;;;7.55;4.90;;;;;;;26.40;31.94;99920.53;5074565;28;20040;-62
2023/07/28 06:10:39;;;;;;;6.00;5.50;;;;;;;26.31;31.00;99913.91;5076051;28;20029;-62
2023/07/28 06:13:04;;;;;;;6.85;6.22;;;;;;;26.58;31.43;99920.09;5074318;28;20037;-63
2023/07/28 06:15:30;;;;;;;9.07;7.82;;;;;;;26.66;30.96;99925.03;5074099;28;20025;-62
2023/07/28 06:17:55;;;;;;;6.90;6.20;;;;;;;26.70;31.33;99928.84;5074991;28;20193;-62
2023/07/28 06:20:21;;;;;;;4.13;3.70;;;;;;;26.84;31.06;99925.66;5076297;28;20036;-62
2023/07/28 06:22:46;;;;;;;8.85;8.10;;;;;;;26.80;31.18;99921.84;5073405;28;20036;-63
2023/07/28 06:25:11;;;;;;;7.43;6.72;;;;;;;26.99;31.34;99923.03;5073671;28;21294;-62
2023/07/28 06:27:38;;;;;;;4.25;3.75;;;;;;;27.17;30.27;99916.34;5075128;28;20036;-62
2023/07/28 06:30:05;;;;;;;6.00;5.50;;;;;;;26.99;30.91;99917.59;5076367;28;20349;-62
2023/07/28 06:32:30;;;;;;;5.78;5.28;;;;;;;27.12;30.95;99908.16;5074390;28;20036;-63
2023/07/28 06:34:57;;;;;;;4.00;3.20;;;;;;;27.19;30.17;99908.75;5074257;28;20044;-62
2023/07/28 06:37:23;;;;;;;5.45;3.58;;;;;;;27.39;29.59;99911.50;5073849;28;20051;-62
2023/07/28 06:39:49;;;;;;;7.45;3.63;;;;;;;27.75;29.28;99908.88;5074120;28;20338;-62
2023/07/28 06:42:16;;;;;;;3.58;3.28;;;;;;;28.13;28.55;99899.38;5073231;28;20035;-63
2023/07/28 06:44:42;;;;;;;4.85;4.45;;;;;;;28.38;28.32;99893.09;5072315;28;20055;-63
2023/07/28 06:47:07;;;;;;;5.38;4.07;;;;;;;28.58;28.05;99896.59;5073312;28;20036;-62
2023/07/28 06:49:32;;;;;;;3.60;3.13;;;;;;;28.51;28.70;99896.06;5073614;28;20040;-63
2023/07/28 06:51:58;;;;;;;3.40;2.63;;;;;;;28.79;27.31;99891.91;5073106;28;20040;-63
2023/07/28 06:54:24;;;;;;;4.82;4.25;;;;;;;29.01;27.13;99885.28;5073256;28;20306;-62
2023/07/28 06:56:50;;;;;;;5.53;3.95;;;;;;;29.12;27.18;99881.41;5073602;28;20043;-62
2023/07/28 06:59:15;;;;;;;3.80;3.20;;;;;;;29.32;27.36;99885.97;5073041;28;20254;-62
2023/07/28 07:01:40;;;;;;;8.25;7.60;;;;;;;29.06;27.73;99880.63;5074179;28;20389;-62
2023/07/28 07:04:06;;;;;;;3.08;2.78;;;;;;;29.04;27.39;99869.19;5079227;28;20320;-62
2023/07/28 07:06:32;;;;;;;3.35;3.05;;;;;;;29.22;26.92;99886.84;5078183;28;20041;-62
2023/07/28 07:08:57;;;;;;;5.00;4.50;;;;;;;29.45;26.81;99885.38;5076133;28;20032;-62
2023/07/28 07:11:23;;;;;;;3.15;2.78;;;;;;;29.72;26.50;99876.72;5076004;28;20048;-62
2023/07/28 07:13:48;;;;;;;6.38;3.22;;;;;;;29.87;26.31;99869.22;5075957;28;20048;-63
2023/07/28 07:16:16;;;;;;;4.40;3.35;;;;;;;29.97;26.29;99871.03;5075713;28;20281;-62
2023/07/28 07:18:43;;;;;;;3.65;2.78;;;;;;;30.10;25.40;99875.03;5072292;28;20131;-62
2023/07/28 07:21:09;;;;;;;3.75;2.40;;;;;;;30.29;25.40;99875.16;5076240;28;20028;-62
2023/07/28 07:23:34;;;;;;;2.75;2.40;;;;;;;30.32;24.61;99869.13;5075960;28;20047;-62
2023/07/28 07:25:59;;;;;;;4.45;2.45;;;;;;;30.45;25.41;99869.25;5075193;28;20036;-62
2023/07/28 07:28:25;;;;;;;3.22;2.92;;;;;;;30.49;25.53;99869.47;5077036;28;20040;-63
2023/07/28 07:30:50;;;;;;;4.57;3.50;;;;;;;30.22;26.27;99869.22;5077319;28;20044;-62
2023/07/28 07:33:16;;;;;;;3.72;3.30;;;;;;;29.87;25.99;99871.94;5077162;28;20046;-63
2023/07/28 07:35:41;;;;;;;5.75;2.78;;;;;;;30.01;25.52;99871.28;5077106;28;20118;-62
2023/07/28 07:38:10;;;;;;;4.03;2.97;;;;;;;30.43;25.66;99865.16;5077778;28;20048;-63
2023/07/28 07:40:36;;;;;;;5.45;3.70;;;;;;;30.76;25.43;99864.25;5079373;28;20104;-62
2023/07/28 07:43:03;;;;;;;4.47;3.10;;;;;;;30.45;25.49;99865.69;5078423;28;20218;-63
2023/07/28 07:45:31;;;;;;;3.50;3.00;;;;;;;29.75;26.59;99865.22;5080179;28;20201;-62
2023/07/28 07:47:58;;;;;;;3.60;3.28;;;;;;;30.09;25.97;99862.50;5077603;28;20334;-63
2023/07/28 07:50:23;;;;;;;5.00;2.92;;;;;;;29.79;26.02;99855.38;5079575;28;20036;-62
2023/07/28 07:52:49;;;;;;;4.25;3.00;;;;;;;29.84;25.94;99853.41;5077018;28;20225;-62
2023/07/28 07:55:14;;;;;;;3.67;3.05;;;;;;;30.11;26.26;99854.81;5076262;28;20036;-63
2023/07/28 07:57:40;;;;;;;3.60;3.08;;;;;;;30.07;26.16;99851.03;5075774;28;20047;-63
2023/07/28 08:00:06;;;;;;;3.45;2.70;;;;;;;30.27;25.82;99853.59;5076366;28;20036;-62
2023/07/28 08:02:32;;;;;;;3.95;2.28;;;;;;;30.55;25.27;99851.91;5077161;28;20028;-62
2023/07/28 08:04:57;;;;;;;2.90;2.13;;;;;;;30.65;25.21;99848.28;5076488;28;20035;-63
2023/07/28 08:07:23;;;;;;;5.30;2.38;;;;;;;30.83;24.39;99854.88;5076389;28;20354;-63
2023/07/28 08:09:49;;;;;;;3.03;1.92;;;;;;;31.08;23.90;99852.63;5078936;28;20033;-63
2023/07/28 08:12:15;;;;;;;3.10;2.10;;;;;;;31.22;23.04;99850.03;5076590;28;20063;-63
2023/07/28 08:14:41;;;;;;;3.45;1.80;;;;;;;31.33;22.82;99843.28;5075840;28;20071;-63
2023/07/28 08:17:08;;;;;;;2.08;1.50;;;;;;;31.05;22.01;99839.53;5075783;28;20253;-63
2023/07/28 08:19:34;;;;;;;2.00;1.80;;;;;;;31.07;23.03;99839.25;5077261;28;20037;-62
2023/07/28 08:21:59;;;;;;;2.00;1.77;;;;;;;31.24;22.31;99842.34;5078114;28;20304;-63
2023/07/28 08:24:24;;;;;;;2.38;1.50;;;;;;;31.40;22.03;99837.44;5074624;28;20235;-62
2023/07/28 08:26:50;;;;;;;2.00;1.70;;;;;;;31.45;21.88;99842.84;5075026;28;20040;-63
2023/07/28 08:29:15;;;;;;;2.47;1.50;;;;;;;31.67;21.64;99834.00;5075161;28;20040;-62
2023/07/28 08:31:41;;;;;;;2.35;2.03;;;;;;;31.77;22.01;99831.13;5075071;28;20037;-62
2023/07/28 08:34:07;;;;;;;1.88;1.55;;;;;;;31.55;20.76;99820.78;5073640;28;20032;-63
2023/07/28 08:36:33;;;;;;;2.05;1.77;;;;;;;30.90;22.03;99828.00;5076018;28;20371;-63
2023/07/28 08:38:59;;;;;;;3.35;3.00;;;;;;;31.12;21.98;99817.28;5077712;28;20222;-62
2023/07/28 08:41:24;;;;;;;2.38;2.17;;;;;;;31.40;22.26;99824.59;5077069;28;20274;-62
2023/07/28 08:43:51;;;;;;;1.92;1.83;;;;;;;31.17;22.05;99820.00;5074261;28;20031;-63
2023/07/28 08:46:16;;;;;;;1.60;1.45;;;;;;;31.29;20.98;99816.81;5075379;28;20124;-63
2023/07/28 08:48:43;;;;;;;2.75;2.28;;;;;;;31.55;22.05;99814.50;5071619;28;20071;-62
2023/07/28 08:51:11;;;;;;;2.03;1.70;;;;;;;31.69;21.09;99805.25;5075369;28;20041;-62
2023/07/28 08:53:37;;;;;;;1.88;1.70;;;;;;;31.90;20.30;99804.88;5075606;28;20020;-62
2023/07/28 08:56:03;;;;;;;2.45;1.92;;;;;;;32.09;20.02;99802.88;5074579;28;20036;-63
2023/07/28 08:58:30;;;;;;;1.90;1.52;;;;;;;32.08;20.68;99793.03;5075558;28;20054;-63
2023/07/28 09:01:00;;;;;;;3.50;1.75;;;;;;;31.75;21.05;99797.75;5075642;28;20043;-62
2023/07/28 09:03:27;;;;;;;3.90;3.60;;;;;;;31.55;21.39;99801.63;5075839;28;20364;-62
2023/07/28 09:05:59;;;;;;;2.67;2.47;;;;;;;31.40;20.86;99791.75;5074537;28;20170;-62
2023/07/28 09:08:24;;;;;;;1.50;1.40;;;;;;;31.54;20.25;99796.44;5075185;28;20055;-63
2023/07/28 09:10:50;;;;;;;2.75;1.58;;;;;;;31.40;20.64;99796.41;5075338;28;20036;-62
2023/07/28 09:13:18;;;;;;;2.08;1.50;;;;;;;31.41;19.96;99787.91;5056759;28;20047;-63
2023/07/28 09:15:43;;;;;;;3.50;3.00;;;;;;;31.40;21.10;99785.47;5075169;28;20068;-62
2023/07/28 09:18:14;;;;;;;2.53;1.60;;;;;;;31.52;20.61;99785.81;5073690;28;20456;-63
2023/07/28 09:20:41;;;;;;;4.75;1.40;;;;;;;31.53;21.08;99789.34;5074333;28;20313;-62
2023/07/28 09:23:07;;;;;;;2.38;1.38;;;;;;;31.51;19.98;99783.38;5074550;28;20311;-63
2023/07/28 09:25:37;;;;;;;1.65;1.55;;;;;;;31.47;20.30;99772.22;5072868;28;20426;-62
2023/07/28 09:28:03;;;;;;;1.77;1.50;;;;;;;31.28;19.85;99774.16;5074141;28;20244;-62
2023/07/28 09:30:46;;;;;;;1.40;1.30;;;;;;;31.43;19.04;99771.19;5074861;28;20328;-63
2023/07/28 09:33:11;;;;;;;1.77;1.50;;;;;;;31.32;20.07;99777.94;5073528;28;20070;-62
2023/07/28 09:35:47;;;;;;;1.80;1.70;;;;;;;31.28;19.74;99764.03;5073781;28;20040;-63
2023/07/28 09:38:14;;;;;;;3.38;1.60;;;;;;;31.17;20.16;99754.34;5071351;28;20052;-62
2023/07/28 09:40:40;;;;;;;1.60;1.40;;;;;;;31.00;21.57;99759.50;5076963;28;20036;-63
2023/07/28 09:43:06;;;;;;;3.08;1.48;;;;;;;30.80;19.55;99753.22;5074612;28;20024;-63
2023/07/28 09:45:33;;;;;;;2.22;1.50;;;;;;;30.83;19.35;99753.75;5074602;28;20272;-62
2023/07/28 09:48:02;;;;;;;2.17;1.95;;;;;;;30.73;20.17;99743.75;5074526;28;20356;-62
2023/07/28 09:50:31;;;;;;;2.10;1.73;;;;;;;30.68;21.25;99746.56;5074610;28;20056;-62
2023/07/28 09:53:01;;;;;;;4.85;2.78;;;;;;;30.64;21.52;99746.34;5073936;28;20352;-62
2023/07/28 09:55:27;;;;;;;1.73;1.60;;;;;;;30.67;20.97;99750.41;5073851;28;20214;-62
2023/07/28 09:57:55;;;;;;;1.60;1.48;;;;;;;30.58;19.89;99744.75;5073830;28;20059;-63
2023/07/28 10:00:22;;;;;;;1.65;1.50;;;;;;;30.29;18.96;99725.75;5074239;28;20048;-62
2023/07/28 10:02:50;;;;;;;1.75;1.60;;;;;;;30.24;19.69;99725.81;5073270;28;20039;-62
2023/07/28 10:05:15;;;;;;;2.05;1.52;;;;;;;30.28;20.28;99723.31;5073072;28;20063;-63
2023/07/28 10:07:43;;;;;;;1.65;1.55;;;;;;;30.25;20.32;99718.44;5073662;28;20428;-62
2023/07/28 10:10:12;;;;;;;2.28;2.10;;;;;;;30.27;19.97;99722.50;5073189;28;20339;-63
2023/07/28 10:12:59;;;;;;;1.77;1.67;;;;;;;30.28;20.86;99717.84;5073456;28;20027;-63
2023/07/28 10:15:30;;;;;;;2.42;1.40;;;;;;;30.38;20.78;99718.53;5069636;28;20242;-62
2023/07/28 10:18:00;;;;;;;3.45;2.38;;;;;;;30.33;20.50;99712.31;5076662;28;20389;-62
2023/07/28 10:20:41;;;;;;;4.95;4.55;;;;;;;30.28;20.68;99707.72;5074822;28;20036;-62
2023/07/28 10:23:15;;;;;;;4.07;3.67;;;;;;;30.15;21.43;99700.22;5070768;28;20032;-63
2023/07/28 10:25:42;;;;;;;1.60;1.50;;;;;;;30.23;20.19;99699.59;5073428;28;20048;-62
2023/07/28 10:28:26;;;;;;;1.77;1.67;;;;;;;30.21;20.95;99690.88;5073063;28;20036;-63
2023/07/28 10:30:54;;;;;;;3.00;1.80;;;;;;;30.35;21.43;99688.25;5071903;28;20422;-62
2023/07/28 10:33:33;;;;;;;1.90;1.60;;;;;;;30.39;20.46;99686.56;5073675;28;20040;-63
2023/07/28 10:36:10;;;;;;;1.40;1.23;;;;;;;30.44;19.91;99673.63;5073569;28;20356;-63
2023/07/28 10:38:36;;;;;;;2.28;1.50;;;;;;;30.47;21.10;99683.16;5076657;28;20067;-62
2023/07/28 10:41:18;;;;;;;1.58;1.38;;;;;;;30.54;20.72;99689.06;5078030;28;20388;-62
2023/07/28 10:43:45;;;;;;;3.30;3.10;;;;;;;30.40;19.04;99678.06;5075682;28;20405;-63
2023/07/28 10:46:14;;;;;;;2.72;2.53;;;;;;;30.38;19.90;99677.53;5077651;28;20032;-62
2023/07/28 10:48:44;;;;;;;2.20;1.95;;;;;;;30.43;19.58;99676.66;5077539;28;20036;-63
2023/07/28 10:51:11;;;;;;;5.93;3.10;;;;;;;30.34;19.82;99665.59;5076707;28;20063;-62
2023/07/28 10:53:37;;;;;;;1.73;1.50;;;;;;;30.26;19.03;99660.78;5077620;28;20122;-62
2023/07/28 10:56:03;;;;;;;2.30;2.10;;;;;;;30.15;19.33;99656.53;5077675;28;20342;-63
2023/07/28 10:58:31;;;;;;;4.93;4.60;;;;;;;30.21;20.59;99652.66;5077117;28;20285;-63
2023/07/28 11:00:56;;;;;;;2.30;2.10;;;;;;;30.33;19.84;99653.03;5077077;28;20104;-62
2023/07/28 11:03:22;;;;;;;2.30;1.40;;;;;;;30.52;20.09;99654.94;5077816;28;20037;-63
2023/07/28 11:05:49;;;;;;;1.58;1.48;;;;;;;30.39;19.91;99643.66;5077431;28;20024;-63
2023/07/28 11:08:14;;;;;;;1.38;1.27;;;;;;;30.55;20.14;99635.22;5077625;28;20030;-62
2023/07/28 11:10:41;;;;;;;1.45;1.35;;;;;;;30.46;19.73;99633.16;5077185;28;20036;-62
2023/07/28 11:13:06;;;;;;;3.05;1.80;;;;;;;30.43;19.64;99632.94;5076166;28;20040;-63
2023/07/28 11:15:33;;;;;;;1.90;1.50;;;;;;;30.46;19.19;99638.63;5078514;28;20048;-63
2023/07/28 11:17:58;;;;;;;1.63;1.50;;;;;;;30.59;19.50;99636.28;5077158;28;20112;-63
2023/07/28 11:20:28;;;;;;;3.90;3.50;;;;;;;30.52;19.43;99633.09;5077008;28;20067;-62
2023/07/28 11:22:56;;;;;;;3.38;2.50;;;;;;;30.57;18.76;99633.81;5077048;28;20032;-63
2023/07/28 11:25:23;;;;;;;3.47;3.17;;;;;;;30.43;17.89;99631.03;5076436;28;20305;-63
2023/07/28 11:27:49;;;;;;;2.92;2.72;;;;;;;30.55;17.91;99625.13;5076266;28;20037;-63